createdAt,value
2023-03-11T00:00:47.169Z,100394.50
2023-03-11T00:03:18.344Z,100415.63
2023-03-11T00:05:47.615Z,100404.09
2023-03-11T00:08:17.519Z,100417.22
2023-03-11T00:10:47.252Z,100419.13
2023-03-11T00:13:16.882Z,100427.72
2023-03-11T00:15:47.025Z,100429.59
2023-03-11T00:18:16.341Z,100432.22
2023-03-11T00:20:46.159Z,100431.41
2023-03-11T00:23:15.891Z,100435.97
2023-03-11T00:25:45.349Z,100430.56
2023-03-11T00:28:13.712Z,100447.47
2023-03-11T00:30:43.508Z,100443.06
2023-03-11T00:33:12.930Z,100445.84
2023-03-11T00:35:43.147Z,100456.50
2023-03-11T00:38:15.069Z,100461.84
2023-03-11T00:40:42.956Z,100459.03
2023-03-11T00:43:10.624Z,100469.56
2023-03-11T00:45:38.320Z,100464.16
2023-03-11T00:48:06.828Z,100469.59
2023-03-11T00:50:37.610Z,100467.97
2023-03-11T00:53:07.231Z,100472.13
2023-03-11T00:55:36.152Z,100471.38
2023-03-11T00:58:06.161Z,100473.13
2023-03-11T01:00:34.264Z,100478.41
2023-03-11T01:03:02.498Z,100480.06
2023-03-11T01:05:33.151Z,100485.44
2023-03-11T01:08:01.183Z,100480.13
2023-03-11T01:10:31.277Z,100482.03
2023-03-11T01:12:59.209Z,100493.50
2023-03-11T01:15:30.476Z,100493.34
2023-03-11T01:17:58.243Z,100485.47
2023-03-11T01:20:26.151Z,100494.34
2023-03-11T01:22:53.851Z,100489.88
2023-03-11T01:25:23.651Z,100498.72
2023-03-11T01:27:53.846Z,100495.22
2023-03-11T01:30:23.966Z,100496.34
2023-03-11T01:32:52.523Z,100504.09
2023-03-11T01:35:22.208Z,100500.72
2023-03-11T01:37:49.993Z,100509.53
2023-03-11T01:40:25.248Z,100507.72
2023-03-11T01:42:54.279Z,100514.81
2023-03-11T01:45:36.855Z,100516.47
2023-03-11T01:48:04.706Z,100520.91
2023-03-11T01:50:36.821Z,100514.66
2023-03-11T01:53:05.826Z,100515.56
2023-03-11T01:55:34.206Z,100520.78
2023-03-11T01:58:07.267Z,100522.47
2023-03-11T02:00:35.861Z,100525.94
2023-03-11T02:03:08.446Z,100531.19
2023-03-11T02:05:37.082Z,100526.69
2023-03-11T02:08:05.018Z,100528.44
2023-03-11T02:10:32.728Z,100529.22
2023-03-11T02:13:01.624Z,100534.38
2023-03-11T02:15:31.516Z,100524.63
2023-03-11T02:18:00.441Z,100527.19
2023-03-11T02:20:39.942Z,100535.03
2023-03-11T02:23:07.777Z,100532.34
2023-03-11T02:25:40.749Z,100538.38
2023-03-11T02:28:12.598Z,100531.25
2023-03-11T02:30:43.223Z,100539.09
2023-03-11T02:33:11.950Z,100539.06
2023-03-11T02:35:39.622Z,100533.84
2023-03-11T02:38:07.531Z,100543.50
2023-03-11T02:40:41.642Z,100541.72
2023-03-11T02:43:14.604Z,100544.34
2023-03-11T02:45:46.372Z,100542.59
2023-03-11T02:48:15.514Z,100533.72
2023-03-11T02:50:46.077Z,100540.56
2023-03-11T02:53:14.071Z,100545.97
2023-03-11T02:55:41.814Z,100549.47
2023-03-11T02:58:11.053Z,100548.56
2023-03-11T03:00:38.869Z,100556.63
2023-03-11T03:03:06.835Z,100550.34
2023-03-11T03:05:34.473Z,100554.91
2023-03-11T03:08:02.746Z,100547.81
2023-03-11T03:10:31.748Z,100553.06
2023-03-11T03:12:59.421Z,100557.47
2023-03-11T03:15:28.476Z,100555.75
2023-03-11T03:17:56.162Z,100560.09
2023-03-11T03:20:23.887Z,100560.19
2023-03-11T03:22:51.936Z,100564.69
2023-03-11T03:25:19.731Z,100554.94
2023-03-11T03:27:47.798Z,100557.47
2023-03-11T03:30:15.718Z,100561.03
2023-03-11T03:32:44.889Z,100568.91
2023-03-11T03:35:12.637Z,100565.38
2023-03-11T03:37:40.506Z,100567.19
2023-03-11T03:40:10.004Z,100575.94
2023-03-11T03:42:38.689Z,100578.41
2023-03-11T03:45:08.856Z,100583.41
2023-03-11T03:47:37.734Z,100596.69
2023-03-11T03:50:08.959Z,100605.47
2023-03-11T03:52:36.870Z,100603.66
2023-03-11T03:55:05.107Z,100612.53
2023-03-11T03:57:32.861Z,100609.97
2023-03-11T04:00:00.551Z,100611.78
2023-03-11T04:02:28.454Z,100615.22
2023-03-11T04:04:56.160Z,100606.38
2023-03-11T04:07:25.182Z,100616.91
2023-03-11T04:09:53.049Z,100623.81
2023-03-11T04:12:20.782Z,100628.19
2023-03-11T04:14:48.731Z,100615.91
2023-03-11T04:17:17.755Z,100621.97
2023-03-11T04:19:45.638Z,100622.88
2023-03-11T04:22:13.324Z,100622.00
2023-03-11T04:24:42.417Z,100621.84
2023-03-11T04:27:10.142Z,100630.41
2023-03-11T04:29:37.911Z,100639.06
2023-03-11T04:32:06.376Z,100647.88
2023-03-11T04:34:34.131Z,100646.00
2023-03-11T04:37:01.970Z,100645.97
2023-03-11T04:39:29.649Z,100652.13
2023-03-11T04:41:59.067Z,100650.44
2023-03-11T04:44:26.858Z,100656.56
2023-03-11T04:46:54.845Z,100660.28
2023-03-11T04:49:22.517Z,100655.25
2023-03-11T04:51:50.250Z,100664.88
2023-03-11T04:54:17.907Z,100660.41
2023-03-11T04:56:45.571Z,100672.53
2023-03-11T04:59:14.643Z,100669.16
2023-03-11T05:01:42.371Z,100671.88
2023-03-11T05:04:11.018Z,100664.00
2023-03-11T05:06:38.767Z,100668.50
2023-03-11T05:09:06.427Z,100669.34
2023-03-11T05:11:34.041Z,100673.53
2023-03-11T05:14:01.721Z,100674.47
2023-03-11T05:16:30.783Z,100677.06
2023-03-11T05:18:58.441Z,100674.44
2023-03-11T05:21:26.091Z,100686.84
2023-03-11T05:23:53.707Z,100684.34
2023-03-11T05:26:21.670Z,100680.94
2023-03-11T05:28:49.425Z,100681.69
2023-03-11T05:31:17.099Z,100680.78
2023-03-11T05:33:46.169Z,100684.22
2023-03-11T05:36:13.867Z,100685.88
2023-03-11T05:38:41.545Z,100691.19
2023-03-11T05:41:09.202Z,100693.06
2023-03-11T05:43:36.876Z,100698.31
2023-03-11T05:46:04.937Z,100700.13
2023-03-11T05:48:32.716Z,100705.44
2023-03-11T05:51:01.723Z,100709.69
2023-03-11T05:53:29.473Z,100709.63
2023-03-11T05:55:57.965Z,100701.59
2023-03-11T05:58:25.750Z,100715.41
2023-03-11T06:00:53.402Z,100718.03
2023-03-11T06:03:21.048Z,100713.47
2023-03-11T06:05:49.553Z,100709.84
2023-03-11T06:08:18.746Z,100713.44
2023-03-11T06:10:48.865Z,100717.00
2023-03-11T06:13:16.694Z,100718.72
2023-03-11T06:15:47.651Z,100710.69
2023-03-11T06:18:15.289Z,100723.84
2023-03-11T06:20:42.921Z,100736.19
2023-03-11T06:23:10.631Z,100728.31
2023-03-11T06:25:39.647Z,100733.63
2023-03-11T06:28:07.441Z,100738.06
2023-03-11T06:30:35.184Z,100733.59
2023-03-11T06:33:03.199Z,100742.44
2023-03-11T06:35:31.129Z,100752.06
2023-03-11T06:37:58.860Z,100751.97
2023-03-11T06:40:26.549Z,100759.03
2023-03-11T06:42:58.564Z,100772.19
2023-03-11T06:45:26.352Z,100771.47
2023-03-11T06:47:53.982Z,100772.38
2023-03-11T06:50:23.723Z,100771.50
2023-03-11T06:52:54.525Z,100775.97
2023-03-11T06:55:22.303Z,100782.19
2023-03-11T06:57:50.012Z,100779.69
2023-03-11T07:00:19.696Z,100777.88
2023-03-11T07:02:47.287Z,100794.59
2023-03-11T07:05:15.171Z,100795.69
2023-03-11T07:07:44.654Z,100806.34
2023-03-11T07:10:13.179Z,100805.59
2023-03-11T07:12:40.897Z,100816.19
2023-03-11T07:15:10.178Z,100820.69
2023-03-11T07:17:39.241Z,100819.00
2023-03-11T07:20:08.470Z,100822.56
2023-03-11T07:22:36.150Z,100828.78
2023-03-11T07:25:03.985Z,100827.13
2023-03-11T07:27:31.678Z,100838.66
2023-03-11T07:29:59.331Z,100838.84
2023-03-11T07:32:27.494Z,100833.56
2023-03-11T07:34:57.111Z,100838.94
2023-03-11T07:37:25.359Z,100846.03
2023-03-11T07:39:53.050Z,100853.13
2023-03-11T07:42:20.749Z,100854.84
2023-03-11T07:44:51.825Z,100855.75
2023-03-11T07:47:19.716Z,100864.69
2023-03-11T07:49:47.484Z,100860.31
2023-03-11T07:52:16.552Z,100870.91
2023-03-11T07:54:45.318Z,100871.84
2023-03-11T07:57:17.041Z,100872.78
2023-03-11T07:59:45.183Z,100882.66
2023-03-11T08:02:12.963Z,100879.25
2023-03-11T08:04:40.628Z,100878.53
2023-03-11T08:07:11.346Z,100884.06
2023-03-11T08:09:40.378Z,100876.28
2023-03-11T08:12:09.111Z,100884.13
2023-03-11T08:14:36.802Z,100885.16
2023-03-11T08:17:05.338Z,100886.84
2023-03-11T08:19:33.056Z,100889.47
2023-03-11T08:22:02.712Z,100885.31
2023-03-11T08:24:30.428Z,100892.53
2023-03-11T08:26:59.435Z,100895.31
2023-03-11T08:29:27.280Z,100898.94
2023-03-11T08:31:54.975Z,100900.78
2023-03-11T08:34:22.706Z,100892.78
2023-03-11T08:36:50.619Z,100898.19
2023-03-11T08:39:18.327Z,100906.28
2023-03-11T08:41:46.040Z,100902.97
2023-03-11T08:44:15.018Z,100901.41
2023-03-11T08:46:42.703Z,100900.56
2023-03-11T08:49:10.953Z,100893.41
2023-03-11T08:51:38.705Z,100893.56
2023-03-11T08:54:06.876Z,100894.50
2023-03-11T08:56:34.692Z,100896.25
2023-03-11T08:59:02.733Z,100901.47
2023-03-11T09:01:31.813Z,100911.28
2023-03-11T09:03:59.523Z,100907.09
2023-03-11T09:06:30.197Z,100914.19
2023-03-11T09:08:58.343Z,100905.50
2023-03-11T09:11:26.427Z,100907.44
2023-03-11T09:13:54.150Z,100912.97
2023-03-11T09:16:24.165Z,100908.56
2023-03-11T09:18:53.405Z,100904.22
2023-03-11T09:21:21.352Z,100913.13
2023-03-11T09:23:49.205Z,100908.84
2023-03-11T09:26:17.324Z,100907.91
2023-03-11T09:28:48.840Z,100916.00
2023-03-11T09:31:16.821Z,100921.50
2023-03-11T09:33:45.302Z,100925.19
2023-03-11T09:36:16.090Z,100933.22
2023-03-11T09:38:44.423Z,100936.72
2023-03-11T09:41:26.975Z,100926.25
2023-03-11T09:44:06.073Z,100931.72
2023-03-11T09:47:04.016Z,100925.72
2023-03-11T09:49:45.970Z,100922.16
2023-03-11T09:52:17.456Z,100928.44
2023-03-11T09:54:48.748Z,100934.66
2023-03-11T09:57:20.578Z,100935.59
2023-03-11T09:59:49.019Z,100946.84
2023-03-11T10:02:19.975Z,100948.81
2023-03-11T10:04:55.357Z,100943.75
2023-03-11T10:07:29.827Z,100942.22
2023-03-11T10:09:59.106Z,100948.50
2023-03-11T10:12:46.411Z,100941.47
2023-03-11T10:15:22.035Z,100948.72
2023-03-11T10:18:16.537Z,100943.59
2023-03-11T10:20:57.806Z,100941.97
2023-03-11T10:23:31.670Z,100953.59
2023-03-11T10:26:07.975Z,100946.47
2023-03-11T10:28:38.138Z,100949.00
2023-03-11T10:31:18.692Z,100949.84
2023-03-11T10:33:49.976Z,100950.66
2023-03-11T10:36:24.233Z,100949.81
2023-03-11T10:38:56.038Z,100957.88
2023-03-11T10:41:30.093Z,100967.59
2023-03-11T10:44:03.382Z,100962.25
2023-03-11T10:46:31.312Z,100971.94
2023-03-11T10:48:59.126Z,100967.59
2023-03-11T10:51:28.976Z,100973.72
2023-03-11T10:53:59.943Z,100969.47
2023-03-11T10:56:31.148Z,100958.16
2023-03-11T10:58:59.466Z,100961.03
2023-03-11T11:01:28.902Z,100951.50
2023-03-11T11:03:59.438Z,100960.47
2023-03-11T11:06:29.472Z,100948.84
2023-03-11T11:09:16.031Z,100948.03
2023-03-11T11:11:44.671Z,100946.44
2023-03-11T11:14:12.484Z,100955.31
2023-03-11T11:16:41.726Z,100961.38
2023-03-11T11:19:11.735Z,100953.41
2023-03-11T11:21:43.255Z,100960.59
2023-03-11T11:24:20.116Z,100954.47
2023-03-11T11:27:06.247Z,100963.41
2023-03-11T11:29:34.774Z,100968.72
2023-03-11T11:32:19.129Z,100957.47
2023-03-11T11:34:56.062Z,100959.31
2023-03-11T11:37:26.825Z,100961.31
2023-03-11T11:40:02.051Z,100948.88
2023-03-11T11:42:32.182Z,100953.34
2023-03-11T11:45:05.697Z,100949.84
2023-03-11T11:47:35.891Z,100936.50
2023-03-11T11:50:07.295Z,100937.44
2023-03-11T11:52:41.085Z,100944.56
2023-03-11T11:55:20.155Z,100946.28
2023-03-11T11:57:47.930Z,100951.63
2023-03-11T12:00:21.148Z,100949.00
2023-03-11T12:03:07.591Z,100947.09
2023-03-11T12:05:44.393Z,100947.97
2023-03-11T12:08:19.551Z,100947.97
2023-03-11T12:10:55.665Z,100946.13
2023-03-11T12:13:51.094Z,100947.13
2023-03-11T12:16:31.497Z,100948.19
2023-03-11T12:19:05.110Z,100955.34
2023-03-11T12:21:50.621Z,100964.22
2023-03-11T12:24:37.066Z,100958.09
2023-03-11T12:27:13.569Z,100961.69
2023-03-11T12:29:45.583Z,100959.88
2023-03-11T12:32:30.437Z,100961.56
2023-03-11T12:35:04.638Z,100965.97
2023-03-11T12:37:32.950Z,100958.88
2023-03-11T12:40:01.052Z,100960.63
2023-03-11T12:42:40.553Z,100958.00
2023-03-11T12:45:41.832Z,100954.50
2023-03-11T12:48:26.945Z,100948.34
2023-03-11T12:50:55.204Z,100948.41
2023-03-11T12:53:43.247Z,100949.31
2023-03-11T12:56:19.522Z,100959.97
2023-03-11T12:59:22.709Z,100960.72
2023-03-11T13:02:24.262Z,100951.00
2023-03-11T13:05:00.491Z,100949.25
2023-03-11T13:07:49.795Z,100947.50
2023-03-11T13:10:36.722Z,100944.84
2023-03-11T13:13:40.677Z,100945.69
2023-03-11T13:16:38.621Z,100942.91
2023-03-11T13:19:47.843Z,100938.53
2023-03-11T13:22:45.272Z,100940.41
2023-03-11T13:25:40.602Z,100933.44
2023-03-11T13:28:29.807Z,100925.47
2023-03-11T13:31:06.299Z,100932.66
2023-03-11T13:33:46.399Z,100924.69
2023-03-11T13:36:26.180Z,100929.09
2023-03-11T13:39:12.916Z,100933.53
2023-03-11T13:41:44.220Z,100931.81
2023-03-11T13:44:17.862Z,100929.19
2023-03-11T13:46:49.900Z,100926.50
2023-03-11T13:49:27.599Z,100935.41
2023-03-11T13:51:59.389Z,100940.75
2023-03-11T13:54:40.070Z,100941.59
2023-03-11T13:57:24.323Z,100939.72
2023-03-11T13:59:56.188Z,100939.69
2023-03-11T14:02:26.117Z,100940.53
2023-03-11T14:04:58.170Z,100941.41
2023-03-11T14:07:37.026Z,100937.97
2023-03-11T14:10:21.806Z,100945.13
2023-03-11T14:12:49.956Z,100944.28
2023-03-11T14:15:22.478Z,100944.34
2023-03-11T14:17:52.056Z,100950.56
2023-03-11T14:20:25.046Z,100954.13
2023-03-11T14:22:55.924Z,100951.41
2023-03-11T14:25:26.554Z,100955.00
2023-03-11T14:27:56.654Z,100956.75
2023-03-11T14:30:29.151Z,100958.53
2023-03-11T14:32:57.458Z,100955.88
2023-03-11T14:35:25.355Z,100961.16
2023-03-11T14:37:54.443Z,100958.47
2023-03-11T14:40:29.325Z,100968.19
2023-03-11T14:43:00.724Z,100967.34
2023-03-11T14:45:32.803Z,100962.03
2023-03-11T14:48:05.554Z,100965.59
2023-03-11T14:50:36.013Z,100970.91
2023-03-11T14:53:09.971Z,100968.28
2023-03-11T14:55:41.335Z,100963.91
2023-03-11T14:58:15.272Z,100953.22
2023-03-11T15:00:47.366Z,100955.00
2023-03-11T15:03:22.899Z,100962.09
2023-03-11T15:05:53.678Z,100966.50
2023-03-11T15:08:26.096Z,100958.44
2023-03-11T15:11:08.228Z,100962.88
2023-03-11T15:13:37.371Z,100977.06
2023-03-11T15:16:07.744Z,100969.06
2023-03-11T15:18:37.884Z,100966.44
2023-03-11T15:21:15.452Z,100966.44
2023-03-11T15:23:48.870Z,100969.09
2023-03-11T15:26:26.030Z,100971.72
2023-03-11T15:29:00.139Z,100977.91
2023-03-11T15:31:31.700Z,100969.91
2023-03-11T15:34:28.767Z,100974.38
2023-03-11T15:37:03.764Z,100976.16
2023-03-11T15:39:47.995Z,100969.06
2023-03-11T15:42:20.889Z,100969.06
2023-03-11T15:45:12.025Z,100977.03
2023-03-11T15:47:40.833Z,100970.00
2023-03-11T15:50:27.320Z,100970.88
2023-03-11T15:52:59.317Z,100964.59
2023-03-11T15:55:28.818Z,100969.91
2023-03-11T15:58:02.010Z,100977.88
2023-03-11T16:00:29.956Z,100976.06
2023-03-11T16:02:57.767Z,100976.94
2023-03-11T16:05:26.974Z,100989.41
2023-03-11T16:07:54.951Z,100980.56
2023-03-11T16:10:25.583Z,100984.09
2023-03-11T16:12:54.729Z,100977.88
2023-03-11T16:15:26.511Z,100970.75
2023-03-11T16:17:54.404Z,100974.28
2023-03-11T16:20:23.512Z,100972.53
2023-03-11T16:22:53.946Z,100980.47
2023-03-11T16:25:24.900Z,100978.66
2023-03-11T16:27:56.506Z,100980.41
2023-03-11T16:30:26.003Z,100974.16
2023-03-11T16:32:53.742Z,100980.41
2023-03-11T16:35:21.802Z,100973.28
2023-03-11T16:37:49.717Z,100977.66
2023-03-11T16:40:20.094Z,100978.50
2023-03-11T16:42:48.432Z,100977.66
2023-03-11T16:45:18.860Z,100977.66
2023-03-11T16:47:46.543Z,100978.50
2023-03-11T16:50:14.214Z,100977.63
2023-03-11T16:52:41.886Z,100980.25
2023-03-11T16:55:10.318Z,100974.03
2023-03-11T16:57:39.401Z,100978.44
2023-03-11T17:00:09.799Z,100982.84
2023-03-11T17:02:39.977Z,100989.06
2023-03-11T17:05:09.854Z,100991.66
2023-03-11T17:07:39.684Z,100992.53
2023-03-11T17:10:08.798Z,100993.38
2023-03-11T17:12:37.000Z,100994.19
2023-03-11T17:15:06.297Z,100991.44
2023-03-11T17:17:34.024Z,100998.47
2023-03-11T17:20:03.552Z,100997.53
2023-03-11T17:22:32.421Z,101001.00
2023-03-11T17:25:00.141Z,101006.28
2023-03-11T17:27:32.127Z,101001.81
2023-03-11T17:30:00.098Z,101003.47
2023-03-11T17:32:27.854Z,101004.28
2023-03-11T17:34:56.123Z,101009.56
2023-03-11T17:37:25.522Z,101014.81
2023-03-11T17:39:53.645Z,101011.22
2023-03-11T17:42:21.375Z,101017.38
2023-03-11T17:44:52.089Z,101017.31
2023-03-11T17:47:21.279Z,101017.31
2023-03-11T17:49:50.534Z,101015.47
2023-03-11T17:52:18.246Z,101016.28
2023-03-11T17:54:47.278Z,101017.16
2023-03-11T17:57:15.018Z,101018.88
2023-03-11T17:59:42.766Z,101015.25
2023-03-11T18:02:13.679Z,101021.41
2023-03-11T18:04:43.351Z,101023.16
2023-03-11T18:07:12.559Z,101024.84
2023-03-11T18:09:40.402Z,101024.78
2023-03-11T18:12:09.787Z,101024.69
2023-03-11T18:14:37.472Z,101027.25
2023-03-11T18:17:05.471Z,101026.31
2023-03-11T18:19:33.101Z,101028.03
2023-03-11T18:22:00.829Z,101021.72
2023-03-11T18:24:28.596Z,101018.06
2023-03-11T18:26:56.333Z,101021.53
2023-03-11T18:29:25.349Z,101017.81
2023-03-11T18:31:53.071Z,101021.28
2023-03-11T18:34:22.201Z,101016.81
2023-03-11T18:36:50.117Z,101030.88
2023-03-11T18:39:17.793Z,101029.03
2023-03-11T18:41:45.515Z,101029.84
2023-03-11T18:44:13.261Z,101034.19
2023-03-11T18:46:42.499Z,101034.94
2023-03-11T18:49:13.114Z,101040.16
2023-03-11T18:51:41.172Z,101041.03
2023-03-11T18:54:09.239Z,101038.34
2023-03-11T18:56:37.336Z,101047.16
2023-03-11T18:59:05.178Z,101046.19
2023-03-11T19:01:33.017Z,101039.88
2023-03-11T19:04:02.193Z,101046.78
2023-03-11T19:06:30.549Z,101041.31
2023-03-11T19:08:58.677Z,101043.13
2023-03-11T19:11:26.946Z,101039.53
2023-03-11T19:13:54.932Z,101043.06
2023-03-11T19:16:24.957Z,101043.94
2023-03-11T19:18:53.800Z,101050.00
2023-03-11T19:21:23.340Z,101050.75
2023-03-11T19:23:52.803Z,101055.06
2023-03-11T19:26:23.906Z,101057.63
2023-03-11T19:28:55.752Z,101056.66
2023-03-11T19:31:23.433Z,101058.34
2023-03-11T19:33:51.377Z,101056.56
2023-03-11T19:36:19.586Z,101063.59
2023-03-11T19:38:49.031Z,101061.75
2023-03-11T19:41:19.297Z,101051.97
2023-03-11T19:43:48.189Z,101051.09
2023-03-11T19:46:18.027Z,101055.56
2023-03-11T19:48:45.775Z,101052.06
2023-03-11T19:51:13.858Z,101050.28
2023-03-11T19:53:42.129Z,101054.72
2023-03-11T19:56:11.601Z,101062.53
2023-03-11T19:58:39.474Z,101066.13
2023-03-11T20:01:07.235Z,101062.66
2023-03-11T20:03:34.968Z,101067.09
2023-03-11T20:06:06.445Z,101061.00
2023-03-11T20:08:36.646Z,101073.34
2023-03-11T20:11:08.129Z,101071.53
2023-03-11T20:13:38.131Z,101058.31
2023-03-11T20:16:08.188Z,101061.81
2023-03-11T20:18:36.063Z,101057.34
2023-03-11T20:21:06.604Z,101058.19
2023-03-11T20:23:34.997Z,101053.69
2023-03-11T20:26:06.520Z,101054.59
2023-03-11T20:28:34.756Z,101059.75
2023-03-11T20:31:10.839Z,101064.13
2023-03-11T20:33:39.063Z,101065.88
2023-03-11T20:36:08.827Z,101051.72
2023-03-11T20:38:36.653Z,101063.94
2023-03-11T20:41:06.179Z,101069.28
2023-03-11T20:43:34.120Z,101064.88
2023-03-11T20:46:02.395Z,101065.84
2023-03-11T20:48:31.871Z,101057.91
2023-03-11T20:51:01.261Z,101061.34
2023-03-11T20:53:30.393Z,101064.91
2023-03-11T20:55:58.442Z,101065.78
2023-03-11T20:58:26.507Z,101062.16
2023-03-11T21:00:54.316Z,101066.50
2023-03-11T21:03:22.368Z,101066.44
2023-03-11T21:05:54.561Z,101063.69
2023-03-11T21:08:22.766Z,101059.88
2023-03-11T21:10:50.884Z,101063.44
2023-03-11T21:13:18.549Z,101058.94
2023-03-11T21:15:46.277Z,101063.13
2023-03-11T21:18:13.946Z,101058.78
2023-03-11T21:20:41.756Z,101058.00
2023-03-11T21:23:10.833Z,101054.44
2023-03-11T21:25:42.605Z,101050.84
2023-03-11T21:28:10.320Z,101056.84
2023-03-11T21:30:38.160Z,101053.22
2023-03-11T21:33:05.882Z,101051.31
2023-03-11T21:35:33.725Z,101043.28
2023-03-11T21:38:01.484Z,101047.66
2023-03-11T21:40:30.576Z,101048.44
2023-03-11T21:42:58.237Z,101045.84
2023-03-11T21:45:26.060Z,101036.19
2023-03-11T21:47:53.954Z,101045.16
2023-03-11T21:50:21.673Z,101044.34
2023-03-11T21:52:49.347Z,101041.75
2023-03-11T21:55:17.176Z,101047.00
2023-03-11T21:57:46.372Z,101041.78
2023-03-11T22:00:14.792Z,101050.50
2023-03-11T22:02:42.567Z,101046.84
2023-03-11T22:05:12.078Z,101042.38
2023-03-11T22:07:39.787Z,101046.78
2023-03-11T22:10:08.948Z,101053.78
2023-03-11T22:12:36.864Z,101057.31
2023-03-11T22:15:07.034Z,101050.28
2023-03-11T22:17:34.924Z,101053.81
2023-03-11T22:20:05.411Z,101053.81
2023-03-11T22:22:33.322Z,101053.03
2023-03-11T22:25:01.094Z,101062.69
2023-03-11T22:27:29.104Z,101066.25
2023-03-11T22:29:56.804Z,101058.41
2023-03-11T22:32:26.134Z,101061.84
2023-03-11T22:34:53.854Z,101055.75
2023-03-11T22:37:21.454Z,101055.84
2023-03-11T22:39:49.156Z,101052.38
2023-03-11T22:42:16.964Z,101047.19
2023-03-11T22:44:44.701Z,101056.91
2023-03-11T22:47:12.483Z,101053.47
2023-03-11T22:49:42.562Z,101057.84
2023-03-11T22:52:10.388Z,101050.81
2023-03-11T22:54:38.239Z,101057.03
2023-03-11T22:57:06.298Z,101049.06
2023-03-11T22:59:33.972Z,101053.50
2023-03-11T23:02:01.737Z,101055.34
2023-03-11T23:04:29.564Z,101052.69
2023-03-11T23:06:59.228Z,101045.63
2023-03-11T23:09:27.059Z,101044.78
2023-03-11T23:11:54.894Z,101051.88
2023-03-11T23:14:30.676Z,101049.31
2023-03-11T23:17:05.922Z,101043.09
2023-03-11T23:19:33.708Z,101049.19
2023-03-11T23:22:02.898Z,101042.16
2023-03-11T23:24:30.587Z,101036.91
2023-03-11T23:26:58.256Z,101042.22
2023-03-11T23:29:26.034Z,101042.22
2023-03-11T23:31:53.668Z,101036.00
2023-03-11T23:34:21.394Z,101032.50
2023-03-11T23:36:49.251Z,101033.44
2023-03-11T23:39:18.389Z,101039.56
2023-03-11T23:41:46.626Z,101045.72
2023-03-11T23:44:14.733Z,101037.78
2023-03-11T23:46:42.366Z,101028.06
2023-03-11T23:49:10.255Z,101036.09
2023-03-11T23:51:37.945Z,101044.00
2023-03-11T23:54:06.254Z,101034.28
2023-03-11T23:56:35.319Z,101035.97
2023-03-11T23:59:03.102Z,101035.94
